Nittenau-Bruck Airport

EDNM · Bayern, Deutschland

METAR-Geschichte EDNM · Nittenau-Bruck Airport

Unten siehst du die METARs der letzten paar Tage. Wähle ein Jahr, um ältere METARs ab dem Jahr 2007 zu durchsuchen.

23. April 2024

Uhrzeit Code Wetter Temp. Sichtweite Wolkendecke Wind METAR/SPECI
12:55
V
5 °C 10 km+ 6.000 ft 050° 050° 6 kt METAR ETIH 231055Z AUTO 05006KT 9999 FEW034 OVC060 05/M04 A2999 RMK AO2 DZE00 SLP169 P0000 T00521036
12:55
V
5 °C 10 km+ 6.000 ft 050° 050° 6 kt METAR ETIH 231055Z AUTO 05006KT 9999 FEW034 OVC060 05/M04 A2999 RMK AO2 DZE00 SLP169 P0000 T00521036 $
11:55
V
5 °C 10 km+ 6.000 ft 050° 050° 10 - 15 kt METAR ETIH 230955Z AUTO 05010G15KT 9999 -DZ FEW033 SCT044 BKN060 BKN070 05/M03 A3000 RMK AO2 DZB51 SLP171 P0000 T00521034 $
11:51
V
5 °C 10 km+ 7.000 ft 060° 060° 9 - 17 kt METAR ETIH 230951Z AUTO 06009G17KT 9999 -DZ FEW033 SCT044 SCT055 BKN070 05/M03 A3000 RMK AO2 DZB51 SLP171 $
10:55
V
5 °C 10 km+ 4.200 ft 040° 040° 3 kt METAR ETIH 230855Z AUTO 04003KT 9999 OVC042 05/M03 A3001 RMK AO2 SLP175 T00461030 58005 $
09:55
V
2 °C 10 km+ 4.100 ft 050° 050° 5 kt METAR ETIH 230755Z AUTO 05005KT 9999 BKN041 OVC050 02/M05 A3002 RMK AO2 SLP181 T00231049 $
08:55
V
1 °C 10 km+ 8.000 ft 360° 360° 0 kt METAR ETIH 230655Z AUTO 00000KT 9999 FEW050 BKN080 BKN100 01/M05 A3003 RMK AO2 SLP184 T00141049 $
07:55
V
0 °C 10 km+ - 360° 360° 0 kt METAR ETIH 230555Z AUTO 00000KT 9999 FEW090 00/M05 A3003 RMK AO2 SLP184 T00041054 10008 21014 56004 $
06:55
V
-1 °C 10 km+ 10.000 ft 320° 320° 3 kt METAR ETIH 230455Z AUTO 32003KT 9999 BKN100 BKN150 M01/M05 A3003 RMK AO2 SLP183 T10091053 $
05:55
V
-1 °C 10 km+ - 320° 320° 3 kt METAR ETIH 230355Z AUTO 32003KT 9999 FEW100 M01/M05 A3003 RMK AO2 SLP183 T10111050 $
04:55
V
-1 °C 10 km+ - 360° 360° 0 kt METAR ETIH 230255Z AUTO 00000KT 9999 FEW110 M01/M04 A3004 RMK AO2 SLP186 T10101045 57012 $
03:55
V
-1 °C 10 km+ - 270° 270° 3 kt METAR ETIH 230155Z AUTO 27003KT 9999 CLR M01/M04 A3005 RMK AO2 SLP190 T10101042 $
02:55
V
0 °C 10 km+ 6.500 ft 360° 360° 0 kt METAR ETIH 230055Z AUTO 00000KT 9999 OVC065 00/M04 A3006 RMK AO2 SLP193 T00041042 $
01:55
V
1 °C 10 km+ 6.500 ft 360° 360° 0 kt METAR ETIH 222355Z AUTO 00000KT 9999 OVC065 01/M04 A3008 RMK AO2 SLPNO T00081042 10049 20006 56003 $
00:55
V
1 °C 10 km+ - 340° 340° 3 kt METAR ETIH 222255Z AUTO 34003KT 9999 CLR 01/M04 A3008 RMK AO2 SLP199 T00141039 $

22. April 2024

Uhrzeit Code Wetter Temp. Sichtweite Wolkendecke Wind METAR/SPECI
23:55
V
2 °C 10 km+ - 360° 360° 0 kt METAR ETIH 222155Z AUTO 00000KT 9999 CLR 02/M03 A3008 RMK AO2 SLP200 T00211032 400811002 $
22:55
V
3 °C 10 km+ - 360° 360° 0 kt METAR ETIH 222055Z AUTO 00000KT 9999 CLR 03/M02 A3009 RMK AO2 SLP202 T00281023 50005 $
21:55
V
3 °C 10 km+ - 360° 360° 0 kt METAR ETIH 221955Z AUTO 00000KT 9999 CLR 03/M02 A3009 RMK AO2 SLP203 T00281025 $
20:55
V
4 °C 10 km+ - 020° 020° 4 kt METAR ETIH 221855Z AUTO 02004KT 9999 CLR 04/M03 A3008 RMK AO2 SLP200 T00381026 $
19:55
V
5 °C 10 km+ - 360° 360° 0 kt METAR ETIH 221755Z AUTO 00000KT 9999 CLR 05/M03 A3007 RMK AO2 SLP197 T00491034 10081 20049 55000 $
18:55
V
6 °C 10 km+ - 360° 360° 0 kt METAR ETIH 221655Z AUTO 00000KT 9999 FEW070 06/M03 A3007 RMK AO2 SLP197 T00611030 $
17:55
V
7 °C 10 km+ 6.500 ft 030° 030° 6 kt METAR ETIH 221555Z AUTO 03006KT 9999 BKN065 07/M04 A3007 RMK AO2 SLP195 T00691045 $
16:55
V
7 °C 10 km+ 6.000 ft 060° 060° 6 kt METAR ETIH 221455Z AUTO 06006KT 9999 OVC060 07/M05 A3007 RMK AO2 SLP195 T00711053 $
15:55
V
7 °C 10 km+ 7.000 ft 360° 360° 0 kt METAR ETIH 221355Z AUTO 00000KT 9999 OVC070 07/M06 A3007 RMK AO2 SLP195 T00711059 $
14:55
V
7 °C 10 km+ 6.000 ft 050° 050° 6 kt METAR ETIH 221255Z AUTO 05006KT 9999 BKN060 07/M05 A3009 RMK AO2 SLP202 T00691051 $
13:55
V
6 °C 10 km+ 6.000 ft 040° 040° 7 kt METAR ETIH 221155Z AUTO 04007KT 9999 OVC060 06/M07 A3009 RMK AO2 SLP202 70006 T00591067 10069 20007 58009 $
12:55
V
6 °C 10 km+ - 060° 060° 4 kt METAR ETIH 221055Z AUTO 06004KT 9999 SCT049 06/M05 A3010 RMK AO2 SLP206 T00621052 $
11:55
V
5 °C 10 km+ 4.000 ft 050° 050° 3 kt METAR ETIH 220955Z AUTO 05003KT 9999 BKN040 BKN050 05/M05 A3012 RMK AO2 SLP213 T00491047 $
10:55
V
4 °C 10 km+ - 040° 040° 4 kt METAR ETIH 220855Z AUTO 04004KT 9999 FEW038 04/M04 A3012 RMK AO2 SLP214 T00441043 50002 $
09:55
V
4 °C 10 km+ - 050° 050° 6 kt METAR ETIH 220755Z AUTO 05006KT 9999 CLR 04/M03 A3012 RMK AO2 SLP214 T00361034 $
08:55
V
2 °C 10 km+ - 020° 020° 4 kt METAR ETIH 220655Z AUTO 02004KT 9999 CLR 02/M03 A3012 RMK AO2 SLP215 T00231032 $
07:55
V
1 °C 10 km+ - 360° 360° 0 kt METAR ETIH 220555Z AUTO 00000KT 9999 CLR 01/M03 A3012 RMK AO2 SLP215 T00061033 10015 21002 55000 $
06:55
V
0 °C 10 km+ 6.500 ft 340° 340° 3 kt METAR ETIH 220455Z AUTO 34003KT 9999 BKN065 00/M02 A3012 RMK AO2 SLP215 T00001025 $
05:55
V
0 °C 10 km+ 5.500 ft 350° 350° 3 kt METAR ETIH 220355Z AUTO 35003KT 9999 FEW040 BKN055 00/M03 A3011 RMK AO2 SLP211 T00041027 $
04:55
V
0 °C 10 km+ 7.000 ft 360° 360° 0 kt METAR ETIH 220255Z AUTO 00000KT 9999 OVC070 00/M03 A3012 RMK AO2 SLP215 T00021027 56001 $
03:55
V
0 °C 10 km+ 6.500 ft 360° 360° 0 kt METAR ETIH 220155Z AUTO 00000KT 9999 OVC065 00/M02 A3012 RMK AO2 SLP215 T00041020 $
02:55
V
1 °C 10 km+ 6.000 ft 360° 360° 0 kt METAR ETIH 220055Z AUTO 00000KT 9999 OVC060 01/M03 A3012 RMK AO2 SLP215 T00121027 $
01:55
V
2 °C 10 km+ 6.000 ft 360° 360° 0 kt METAR ETIH 212355Z AUTO 00000KT 9999 OVC060 02/M03 A3012 RMK AO2 SLP213 60001 T00161031 10034 20015 50000 $
00:55
V
2 °C 10 km+ 5.000 ft 030° 030° 5 kt METAR ETIH 212255Z AUTO 03005KT 9999 OVC050 02/M03 A3012 RMK AO2 SLP213 T00211032 $

21. April 2024

Uhrzeit Code Wetter Temp. Sichtweite Wolkendecke Wind METAR/SPECI
23:55
V
2 °C 10 km+ - 050° 050° 5 kt METAR ETIH 212155Z AUTO 05005KT 9999 CLR 02/M02 A3012 RMK AO2 RAE31 SLP214 P0000 T00231020 400560008 $
23:31
V
2 °C 10 km+ - 040° 040° 7 kt METAR ETIH 212131Z AUTO 04007KT 9999 SCT016 02/M02 A3012 RMK AO2 RAE31 SLP214 $
23:05
M
2 °C 10 km+ 1.500 ft 060° 060° 3 kt METAR ETIH 212105Z AUTO 06003KT 9999 -RA OVC015 02/M01 A3012 RMK AO2 SLP214 $
22:55
M
2 °C 10 km+ 1.400 ft 020° 020° 3 kt METAR ETIH 212055Z AUTO 02003KT 9999 -RA OVC014 02/M01 A3012 RMK AO2 DZE1958RAB1958 SLP214 P0000 60001 T00191007 52016 $
22:40
M
2 °C 10 km+ 1.300 ft 040° 040° 4 kt METAR ETIH 212040Z AUTO 04004KT 9999 -RA OVC013 02/M00 A3012 RMK AO2 DZE1958RAB1958 CIG 013V019 SLP214 $
22:15
M
2 °C 10 km+ 1.900 ft 040° 040° 5 kt METAR ETIH 212015Z AUTO 04005KT 9999 -RA BKN019 02/M01 A3011 RMK AO2 DZE1958RAB1958 SLP210 $
21:55
V
2 °C 10 km+ - 020° 020° 3 kt METAR ETIH 211955Z AUTO 02003KT 9999 -DZ FEW022 02/00 A3011 RMK AO2 DZE07DZB54 SLP210 P0000 T00230002 $
21:54
V
2 °C 10 km+ - 010° 010° 4 kt METAR ETIH 211954Z AUTO 01004KT 9999 -DZ FEW022 02/00 A3011 RMK AO2 DZE07DZB54 SLP210 $
21:07
V
3 °C 10 km+ - 030° 030° 5 kt METAR ETIH 211907Z AUTO 03005KT 9999 FEW023 03/00 A3010 RMK AO2 DZE07 SLP208 $
20:55
V
3 °C 10 km+ - 030° 030° 4 kt METAR ETIH 211855Z AUTO 03004KT 9999 -DZ FEW019 SCT024 03/01 A3010 RMK AO2 RAE02DZB02 SLP208 P0001 T00280005 $
20:25
M
3 °C 10 km+ 2.000 ft 030° 030° 5 kt METAR ETIH 211825Z AUTO 03005KT 9999 -DZ SCT011 OVC020 03/01 A3009 RMK AO2 RAE02DZB02 CIG 010V020 SLP204 $
19:55
M
3 °C 10 km+ 1.000 ft 020° 020° 5 kt METAR ETIH 211755Z AUTO 02005KT 9999 -RA OVC010 03/01 A3007 RMK AO2 RAE10DZB10E11RAB11 SLP198 P0001 60005 T00330013 10054 20033 52018 $
19:25
I
4 °C 10 km+ 900 ft 010° 010° 3 kt METAR ETIH 211725Z AUTO 01003KT 9999 -RA BKN009 OVC014 04/02 A3006 RMK AO2 RAE10DZB10E11RAB11 SLP193 $
19:20
M
4 °C 10 km+ 1.000 ft 360° 360° 0 kt METAR ETIH 211720Z AUTO 00000KT 9999 -RA OVC010 04/02 A3006 RMK AO2 RAE10DZB10E11RAB11 SLP193 $
18:55
I
4 °C 10 km+ 900 ft 360° 360° 0 kt METAR ETIH 211655Z AUTO 00000KT 9999 -RA BKN009 OVC017 04/02 A3005 RMK AO2 DZB40E48RAB48 CIG 009V014 SLP190 P0000 T00380022 $
18:45
M
4 °C 10 km+ 1.400 ft 360° 360° 0 kt METAR ETIH 211645Z AUTO 00000KT 9999 -DZ SCT008 BKN014 OVC023 04/02 A3005 RMK AO2 DZB40 SLP190 $
18:40
M
4 °C 10 km+ 1.600 ft 030° 030° 3 kt METAR ETIH 211640Z AUTO 03003KT 9999 -DZ SCT008 BKN016 OVC024 04/02 A3005 RMK AO2 DZB40 CIG 016V024 SLP190 $
18:00
M
4 °C 10 km+ 1.600 ft 040° 040° 6 kt METAR ETIH 211600Z AUTO 04006KT 9999 FEW010 OVC016 04/02 A3004 RMK AO2 CIG 012V016 SLP186 $
17:55
M
4 °C 10 km+ 1.400 ft 040° 040° 4 kt METAR ETIH 211555Z AUTO 04004KT 9999 BKN014 OVC019 04/02 A3003 RMK AO2 RAE02DZB02E15DZB33E46 CIG 010V014 SLP183 P0001 T00410016 $
17:38
M
4 °C 10 km+ 1.000 ft 040° 040° 7 kt METAR ETIH 211538Z AUTO 04007KT 9999 -DZ BKN010 OVC015 04/02 A3003 RMK AO2 RAE02DZB02E15DZB33 SLP183 $
17:33
I
4 °C 10 km+ 900 ft 040° 040° 6 kt METAR ETIH 211533Z AUTO 04006KT 9999 -DZ OVC009 04/02 A3003 RMK AO2 RAE02DZB02E15DZB33 OVC V BKN SLP183 $
17:15
I
4 °C 10 km+ 900 ft 040° 040° 7 kt METAR ETIH 211515Z AUTO 04007KT 9999 OVC009 04/02 A3002 RMK AO2 RAE02DZB02E15 CIG 007V009 SLP179 $
16:55
I
4 °C 10 km+ 700 ft 360° 360° 0 kt METAR ETIH 211455Z AUTO 00000KT 9999 -RA OVC007 04/02 A3002 RMK AO2 DZB24E50RAB50 SLP179 P0000 60003 T00380023 52011 $
16:24
I
4 °C 10 km+ 700 ft 320° 320° 5 kt METAR ETIH 211424Z AUTO 32005KT 9999 -DZ BKN007 OVC012 04/02 A3001 RMK AO2 DZB24 SLP176 $
16:00
M
4 °C 10 km+ 1.300 ft 010° 010° 3 kt METAR ETIH 211400Z AUTO 01003KT 9999 SCT008 BKN013 BKN022 04/02 A3001 RMK AO2 CIG 013V021 SLP176 $
15:55
M
4 °C 10 km+ 2.100 ft 330° 330° 3 kt METAR ETIH 211355Z AUTO 33003KT 9999 SCT008 BKN021 04/02 A3000 RMK AO2 RAE01DZB01E10RAB10E39DZB39E52 SLP173 P0002 T00420022 $
15:52
M
4 °C 10 km+ 2.100 ft 320° 320° 3 kt METAR ETIH 211352Z AUTO 32003KT 9999 SCT008 BKN021 04/02 A3000 RMK AO2 RAE01DZB01E10RAB10E39DZB39E52 CIG 018V024 SLP173 $
15:00
M
4 °C 10 km+ 1.500 ft 040° 040° 3 kt METAR ETIH 211300Z AUTO 04003KT 9999 -RA SCT008 OVC015 04/02 A3000 RMK AO2 SLP173 $
14:55
M
4 °C 10 km+ 1.400 ft 060° 060° 4 kt METAR ETIH 211255Z AUTO 06004KT 9999 -RA SCT008 OVC014 04/02 A3000 RMK AO2 RAB20E21DZB21E27RAB27 SLP173 P0001 T00360015 $
14:40
M
4 °C 10 km+ 1.400 ft 360° 360° 0 kt METAR ETIH 211240Z AUTO 00000KT 9999 -RA BKN014 OVC019 04/02 A3000 RMK AO2 RAB20E21DZB21E27RAB27 SLP173 $
14:25
M
5 °C 10 km+ 1.700 ft 050° 050° 6 kt METAR ETIH 211225Z AUTO 05006KT 9999 -DZ SCT010 BKN017 OVC027 05/03 A2999 RMK AO2 RAB20E21DZB21 CIG 012V017 SLP169 $
13:55
M
5 °C 10 km+ 1.600 ft 360° 360° 0 kt METAR ETIH 211155Z AUTO 00000KT 9999 BKN016 OVC024 05/01 A2998 RMK AO2 CIG 015V024 SLP166 60001 70024 T00540008 10056 20017 51002 $
13:15
M
5 °C 10 km+ 1.300 ft 250° 250° 4 kt METAR ETIH 211115Z AUTO 25004KT 9999 BKN013 OVC030 05/02 A2998 RMK AO2 CIG 013V030 BKN V SCT SLP166 $
12:55
M
5 °C 10 km+ 2.300 ft 270° 270° 4 kt METAR ETIH 211055Z AUTO 27004KT 9999 SCT015 BKN023 OVC029 05/01 A2998 RMK AO2 DZE05 CIG 015V023 BKN V OVC SLP165 P0000 T00510014 $
12:35
M
5 °C 10 km+ 1.400 ft 360° 360° 0 kt METAR ETIH 211035Z AUTO 00000KT 9999 OVC014 05/02 A2999 RMK AO2 DZE05 SLP168 $
12:20
M
4 °C 10 km+ 1.500 ft 240° 240° 4 kt METAR ETIH 211020Z AUTO 24004KT 9999 SCT010 OVC015 04/02 A2998 RMK AO2 DZE05 CIG 010V015 SLP166 $
12:10
M
4 °C 10 km+ 1.000 ft 360° 360° 0 kt METAR ETIH 211010Z AUTO 00000KT 9999 BKN010 OVC015 04/02 A2998 RMK AO2 DZE05 CIG 009V015 SLP166 $
12:05
I
4 °C 10 km+ 900 ft 280° 280° 4 kt METAR ETIH 211005Z AUTO 28004KT 9999 BKN009 OVC015 04/02 A2998 RMK AO2 DZE05 SLP166 $
11:55
I
5 °C 10 km+ 900 ft 250° 250° 4 kt METAR ETIH 210955Z AUTO 25004KT 9999 -DZ BKN009 OVC019 05/02 A2998 RMK AO2 DZB13E30DZB34E45DZB47 CIG 009V011 SLP165 P0000 T00470017 $
11:34
M
4 °C 10 km+ 1.100 ft 360° 360° 0 kt METAR ETIH 210934Z AUTO 00000KT 9999 -DZ BKN011 OVC020 04/02 A2998 RMK AO2 DZB13E30DZB34 BKN V OVC SLP166 $
11:30
M
4 °C 10 km+ 1.100 ft 230° 230° 3 kt METAR ETIH 210930Z AUTO 23003KT 9999 BKN011 OVC020 04/02 A2998 RMK AO2 DZB13E30 BKN V OVC SLP166 $
11:13
M
4 °C 10 km+ 1.000 ft 210° 210° 3 kt METAR ETIH 210913Z AUTO 21003KT 9999 -DZ OVC010 04/02 A2998 RMK AO2 DZB13 OVC V BKN SLP166 $
11:00
M
4 °C 10 km+ 1.000 ft 360° 360° 0 kt METAR ETIH 210900Z AUTO 00000KT 9999 OVC010 04/02 A2998 RMK AO2 CIG 007V010 SLP166 $
10:55
I
4 °C 10 km+ 800 ft 200° 200° 3 kt METAR ETIH 210855Z AUTO 20003KT 9999 BKN008 OVC013 04/02 A2998 RMK AO2 DZE09DZB17E28 CIG 007V009 SLP166 P0000 60001 T00380017 53001 $
10:28
I
4 °C 10 km+ 700 ft 360° 360° 0 kt METAR ETIH 210828Z AUTO 00000KT 9999 OVC007 04/02 A2998 RMK AO2 DZE09DZB17E28 SLP166 $
10:17
I
3 °C 10 km+ 700 ft 170° 170° 4 kt METAR ETIH 210817Z AUTO 17004KT 9999 -DZ OVC007 03/01 A2998 RMK AO2 DZE09DZB17 SLP166 $
10:09
I
3 °C 10 km+ 700 ft 180° 180° 3 kt METAR ETIH 210809Z AUTO 18003KT 9999 OVC007 03/02 A2998 RMK AO2 DZE09 SLP166 $
09:55
I
3 °C 10 km+ 600 ft 190° 190° 3 kt METAR ETIH 210755Z AUTO 19003KT 9999 -DZ OVC006 03/01 A2997 RMK AO2 RAE18DZB18 SLP162 P0001 T00290014 $
10:00
I
3 °C 10 km+ 700 ft 190° 190° 4 kt METAR ETIH 210800Z AUTO 19004KT 9999 -DZ OVC007 03/01 A2997 RMK AO2 SLP162 $
09:10
I
2 °C 10 km+ 600 ft 360° 360° 0 kt METAR ETIH 210710Z AUTO 00000KT 9999 -RA OVC006 02/00 A2997 RMK AO2 OVC V BKN SLP163 $
08:55
I
2 °C 10 km+ 700 ft 360° 360° 0 kt METAR ETIH 210655Z AUTO 00000KT 9999 -RA BKN007 OVC014 02/01 A2997 RMK AO2 RAE0558DZB0558E10DZB16E19RAB19E34RAB35E38DZB38E48RAB54 SLP163 P0000 T00190006 $
08:34
I
2 °C 10 km+ 700 ft 170° 170° 3 kt METAR ETIH 210634Z AUTO 17003KT 9999 BKN007 OVC013 02/01 A2997 RMK AO2 RAE0558DZB0558E10DZB16E19RAB19E34 BKN V OVC SLP163 $
08:35
I
2 °C 10 km+ 700 ft 170° 170° 3 kt METAR ETIH 210635Z AUTO 17003KT 9999 -RA BKN007 OVC013 02/01 A2997 RMK AO2 RAE0558DZB0558E10DZB16E19RAB19E34RAB35 BKN V OVC SLP163 $
08:16
I
2 °C 10 km+ 700 ft 360° 360° 0 kt METAR ETIH 210616Z AUTO 00000KT 9999 -DZ OVC007 02/01 A2997 RMK AO2 RAE0558DZB0558E10DZB16 SLP163 $
07:55
I
2 °C 10 km+ 700 ft 360° 360° 0 kt METAR ETIH 210555Z AUTO 00000KT 9999 -RA OVC007 02/01 A2997 RMK AO2 SLP162 P0004 60007 T00180005 10026 20008 56009 $
Eine Änderung melden